Time;durP1;ratioP1;P1;durP2;ratioP2;P2;SDS_P1;SDS_P2;PMS_P1;PMS_P2;Temp;Humidity;BMP_temperature;BMP_pressure;BME280_temperature;BME280_humidity;BME280_pressure;Samples;Min_cycle;Max_cycle;Signal;HPM_P1;HPM_P2
2022/11/18 00:01:25;;;;;;;;;2.00;1.00;;;;;11.84;69.27;99392.63;5046597;28;46856;-67
2022/11/18 00:03:52;;;;;;;;;2.75;1.00;;;;;11.86;69.21;99403.94;5048681;28;45519;-66
2022/11/18 00:06:24;;;;;;;;;2.67;1.00;;;;;11.86;68.96;99406.56;5049355;28;45642;-67
2022/11/18 00:08:51;;;;;;;;;1.00;1.00;;;;;11.88;69.14;99404.78;5048335;28;45839;-66
2022/11/18 00:14:23;;;;;;;;;1.33;0.00;;;;;11.89;69.10;99416.16;5046780;28;45580;-67
2022/11/18 00:16:52;;;;;;;;;3.00;1.67;;;;;11.87;68.91;99412.72;5047014;28;45525;-66
2022/11/18 00:19:23;;;;;;;;;1.00;1.00;;;;;11.90;69.50;99417.88;5047448;28;45512;-66
2022/11/18 00:21:49;;;;;;;;;4.00;1.00;;;;;11.89;69.08;99426.66;5050281;28;45552;-68
2022/11/18 00:24:14;;;;;;;;;0.00;0.00;;;;;11.84;69.52;99431.09;5050768;28;45578;-67
2022/11/18 00:26:40;;;;;;;;;2.33;2.00;;;;;11.87;68.79;99434.56;5049934;28;45540;-67
2022/11/18 00:29:09;;;;;;;;;0.00;0.00;;;;;11.56;68.71;99394.19;5044911;28;45822;-68
2022/11/18 00:31:35;;;;;;;;;1.00;1.00;;;;;11.85;69.00;99444.19;5047099;28;46536;-66
2022/11/18 00:34:00;;;;;;;;;2.00;0.00;;;;;11.84;68.59;99447.72;5047428;28;45592;-67
2022/11/18 00:36:27;;;;;;;;;1.00;1.00;;;;;11.82;69.16;99460.00;5048412;28;46021;-67
2022/11/18 00:38:54;;;;;;;;;2.00;1.00;;;;;11.82;68.77;99465.25;5049169;28;45539;-66
2022/11/18 00:41:19;;;;;;;;;1.33;1.00;;;;;11.69;68.62;99450.69;5047871;28;45951;-66
2022/11/18 00:43:45;;;;;;;;;0.00;0.00;;;;;11.66;69.17;99445.53;5045500;28;46076;-66
2022/11/18 00:46:12;;;;;;;;;1.00;1.00;;;;;11.73;69.34;99462.00;5044125;28;45978;-66
2022/11/18 00:48:38;;;;;;;;;0.00;0.00;;;;;11.75;69.54;99470.69;5046290;28;45532;-67
2022/11/18 00:51:16;;;;;;;;;1.33;1.00;;;;;11.70;69.66;99472.53;5029422;28;46252;-68
2022/11/18 00:53:42;;;;;;;;;0.33;0.33;;;;;11.64;69.03;99473.53;5050583;28;45807;-65
2022/11/18 00:56:08;;;;;;;;;3.67;1.00;;;;;11.69;69.17;99487.41;5053387;28;45323;-67
2022/11/18 00:58:35;;;;;;;;;1.00;1.00;;;;;11.63;69.33;99475.31;5053174;28;45396;-67
2022/11/18 01:01:00;;;;;;;;;1.00;1.00;;;;;11.63;69.43;99490.19;5051205;28;46231;-67
2022/11/18 01:03:27;;;;;;;;;0.00;0.00;;;;;11.64;69.26;99489.28;5050576;28;45444;-68
2022/11/18 01:05:53;;;;;;;;;0.00;0.00;;;;;11.58;69.60;99482.41;5033578;28;45521;-65
2022/11/18 01:08:19;;;;;;;;;3.33;1.00;;;;;11.59;69.43;99499.88;5050917;28;45612;-68
2022/11/18 01:10:47;;;;;;;;;1.00;1.00;;;;;11.52;69.57;99490.41;5050903;28;45425;-68
2022/11/18 01:13:27;;;;;;;;;2.00;0.00;;;;;11.49;69.24;99490.47;5051320;28;45562;-66
2022/11/18 01:15:56;;;;;;;;;1.00;0.67;;;;;11.54;69.46;99490.38;5047965;28;45556;-67
2022/11/18 01:18:28;;;;;;;;;0.00;0.00;;;;;11.61;69.27;99499.84;5055004;28;45973;-68
2022/11/18 01:21:00;;;;;;;;;1.00;0.00;;;;;11.57;69.41;99491.16;5035701;28;45745;-67
2022/11/18 01:23:25;;;;;;;;;1.67;1.67;;;;;11.56;69.21;99497.31;5055282;28;45457;-67
2022/11/18 01:25:51;;;;;;;;;3.00;1.67;;;;;11.58;69.38;99507.75;5051940;28;45380;-66
2022/11/18 01:28:17;;;;;;;;;0.67;0.67;;;;;11.57;69.75;99504.28;5054530;28;45528;-68
2022/11/18 01:30:44;;;;;;;;;0.00;0.00;;;;;11.53;69.92;99500.03;5053785;28;46453;-67
2022/11/18 01:33:09;;;;;;;;;1.00;1.00;;;;;11.57;69.95;99508.66;5050865;28;45580;-67
2022/11/18 01:35:41;;;;;;;;;0.00;0.00;;;;;11.56;69.74;99512.19;5049800;28;45783;-67
2022/11/18 01:38:10;;;;;;;;;0.00;0.00;;;;;11.50;69.43;99500.06;5050722;28;46121;-65
2022/11/18 01:40:36;;;;;;;;;1.00;1.00;;;;;11.55;69.46;99518.31;5053664;28;46219;-67
2022/11/18 01:43:08;;;;;;;;;0.00;0.00;;;;;11.51;69.10;99520.16;5054288;28;45608;-65
2022/11/18 01:45:38;;;;;;;;;1.00;0.00;;;;;11.31;69.79;99491.72;5051299;28;45929;-66
2022/11/18 01:48:32;;;;;;;;;0.00;0.00;;;;;11.49;69.45;99524.56;5054307;28;45351;-67
2022/11/18 01:51:10;;;;;;;;;0.00;0.00;;;;;11.48;69.76;99529.84;5054374;28;46207;-67
2022/11/18 01:53:41;;;;;;;;;0.00;0.00;;;;;11.46;69.86;99538.63;5054710;28;45294;-68
2022/11/18 01:56:13;;;;;;;;;3.00;0.00;;;;;11.46;69.41;99527.25;5051208;28;45349;-66
2022/11/18 01:58:55;;;;;;;;;1.00;1.00;;;;;11.41;69.15;99535.22;5053985;28;45395;-67
2022/11/18 02:01:20;;;;;;;;;0.33;0.33;;;;;11.42;69.53;99538.69;5051272;28;46720;-67
2022/11/18 02:03:48;;;;;;;;;0.00;0.00;;;;;11.40;69.78;99533.47;5039458;28;45573;-67
2022/11/18 02:06:14;;;;;;;;;0.00;0.00;;;;;11.38;69.58;99530.03;5052598;28;45807;-67
2022/11/18 02:08:41;;;;;;;;;0.00;0.00;;;;;11.37;69.97;99528.31;5050173;28;45626;-68
2022/11/18 02:11:49;;;;;;;;;0.00;0.00;;;;;11.25;69.70;99525.94;5053819;28;46129;-66
2022/11/18 02:14:00;;;;;;;;;0.00;0.00;;;;;11.31;69.94;99531.03;5053423;28;45517;-65
2022/11/18 02:16:53;;;;;;;;;0.67;0.67;;;;;11.36;70.08;99542.28;5053519;28;45481;-67
2022/11/18 02:19:34;;;;;;;;;0.33;0.33;;;;;11.34;70.30;99559.84;5049592;28;45764;-66
2022/11/18 02:22:11;;;;;;;;;0.00;0.00;;;;;11.33;70.24;99562.47;5055712;28;45726;-66
2022/11/18 02:24:53;;;;;;;;;0.00;0.00;;;;;11.32;69.94;99558.13;5052879;28;45421;-67
2022/11/18 02:27:21;;;;;;;;;0.00;0.00;;;;;11.30;70.22;99567.78;5053085;28;45425;-66
2022/11/18 02:30:02;;;;;;;;;2.00;0.00;;;;;11.28;70.36;99570.44;5057221;28;45387;-66
2022/11/18 02:32:47;;;;;;;;;0.33;0.00;;;;;11.26;70.60;99564.34;5053991;28;45531;-67
2022/11/18 02:35:41;;;;;;;;;0.00;0.00;;;;;11.27;70.68;99573.97;5045949;28;45655;-68
2022/11/18 02:38:19;;;;;;;;;0.00;0.00;;;;;11.15;70.21;99551.47;5058197;28;45577;-66
2022/11/18 02:41:01;;;;;;;;;0.00;0.00;;;;;11.22;70.77;99570.53;5058512;28;45660;-69
2022/11/18 02:43:43;;;;;;;;;1.33;0.00;;;;;11.19;70.90;99570.59;5057144;28;45414;-67
2022/11/18 02:46:13;;;;;;;;;1.33;0.00;;;;;11.23;70.46;99593.25;5058112;28;45551;-68
2022/11/18 02:48:46;;;;;;;;;1.00;1.00;;;;;11.22;70.65;99587.16;5059118;28;45563;-68
2022/11/18 02:51:17;;;;;;;;;2.00;0.75;;;;;11.20;70.35;99582.81;5056041;28;45444;-67
2022/11/18 02:53:46;;;;;;;;;1.00;1.00;;;;;11.12;70.80;99584.72;5057167;28;46112;-66
2022/11/18 02:56:14;;;;;;;;;3.00;0.00;;;;;11.16;71.04;99597.75;5052779;28;45446;-67
2022/11/18 02:58:40;;;;;;;;;0.00;0.00;;;;;11.14;70.80;99582.94;5052757;28;45874;-66
2022/11/18 03:01:06;;;;;;;;;0.00;0.00;;;;;11.19;71.19;99599.44;5053615;28;45415;-65
2022/11/18 03:03:34;;;;;;;;;0.00;0.00;;;;;11.19;70.96;99597.66;5034889;28;48116;-67
2022/11/18 03:06:34;;;;;;;;;0.00;0.00;;;;;11.18;70.92;99595.09;5045978;28;45769;-65
2022/11/18 03:09:21;;;;;;;;;0.33;0.00;;;;;11.16;71.14;99596.88;5053284;28;45332;-66
2022/11/18 03:11:56;;;;;;;;;1.75;0.00;;;;;11.01;70.64;99592.78;5057737;28;45730;-67
2022/11/18 03:14:33;;;;;;;;;1.00;1.00;;;;;11.13;70.51;99618.78;5031901;28;47102;-67
2022/11/18 03:17:13;;;;;;;;;0.33;0.00;;;;;11.14;70.84;99617.00;5054204;28;45674;-67
2022/11/18 03:19:57;;;;;;;;;0.00;0.00;;;;;11.12;70.86;99622.25;5044073;28;45783;-67
2022/11/18 03:22:34;;;;;;;;;0.00;0.00;;;;;11.10;70.98;99615.31;5053726;28;45406;-67
2022/11/18 03:25:09;;;;;;;;;2.67;0.00;;;;;11.10;70.99;99618.81;5052533;28;46157;-66
2022/11/18 03:28:25;;;;;;;;;0.33;0.33;;;;;11.07;71.28;99611.00;5052731;28;45415;-67
2022/11/18 03:31:02;;;;;;;;;1.00;0.00;;;;;11.07;71.12;99618.00;4933861;28;45497;-66
2022/11/18 03:33:35;;;;;;;;;2.00;0.00;;;;;11.01;71.40;99619.00;4934027;28;45504;-66
2022/11/18 03:36:05;;;;;;;;;1.25;0.75;;;;;10.94;71.57;99614.72;4995607;28;45745;-66
2022/11/18 03:38:36;;;;;;;;;3.00;1.00;;;;;10.96;71.31;99620.81;5053117;28;45480;-67
2022/11/18 03:41:07;;;;;;;;;1.33;0.00;;;;;10.97;71.73;99627.78;5056279;28;45433;-66
2022/11/18 03:43:40;;;;;;;;;1.33;0.00;;;;;10.94;71.77;99627.81;5038035;28;45450;-66
2022/11/18 03:46:15;;;;;;;;;0.00;0.00;;;;;10.98;71.79;99639.97;5056069;28;45437;-66
2022/11/18 03:48:47;;;;;;;;;2.00;0.00;;;;;10.98;71.70;99653.94;5048992;28;45678;-66
2022/11/18 03:51:17;;;;;;;;;0.00;0.00;;;;;11.00;71.70;99652.16;5045637;28;45576;-68
2022/11/18 03:54:02;;;;;;;;;0.00;0.00;;;;;10.92;71.46;99650.59;5054597;28;45415;-68
2022/11/18 03:56:36;;;;;;;;;0.75;0.75;;;;;10.95;71.94;99655.75;5051792;28;46203;-68
2022/11/18 03:59:15;;;;;;;;;0.00;0.00;;;;;10.89;71.87;99650.63;5053310;28;45433;-68
2022/11/18 04:01:50;;;;;;;;;0.50;0.50;;;;;10.89;71.87;99674.19;5048534;28;45527;-68
2022/11/18 04:04:15;;;;;;;;;0.33;0.00;;;;;10.87;71.82;99681.22;5045332;28;45487;-66
2022/11/18 04:06:45;;;;;;;;;0.00;0.00;;;;;10.84;72.33;99676.88;5051838;28;45601;-66
2022/11/18 04:09:25;;;;;;;;;3.00;0.00;;;;;10.75;72.33;99679.69;5053569;28;45763;-68
2022/11/18 04:12:01;;;;;;;;;1.25;0.00;;;;;10.80;72.04;99688.31;5055587;28;45307;-66
2022/11/18 04:14:30;;;;;;;;;0.75;0.25;;;;;10.81;72.03;99685.66;5053336;28;45525;-67
2022/11/18 04:16:56;;;;;;;;;1.25;1.00;;;;;10.64;72.76;99685.06;5053272;28;46629;-67
2022/11/18 04:19:22;;;;;;;;;1.00;1.00;;;;;10.61;72.67;99703.44;5052006;28;45295;-67
2022/11/18 04:21:49;;;;;;;;;0.00;0.00;;;;;10.60;73.14;99697.31;5054813;28;45429;-67
2022/11/18 04:24:15;;;;;;;;;0.50;0.00;;;;;10.55;72.84;99686.06;5034165;28;45362;-67
2022/11/18 04:26:41;;;;;;;;;1.00;1.00;;;;;10.51;72.45;99665.19;5053302;28;45729;-66
2022/11/18 04:29:06;;;;;;;;;1.00;1.00;;;;;10.71;72.76;99698.94;5046194;28;45581;-67
2022/11/18 04:31:32;;;;;;;;;0.75;0.75;;;;;10.71;72.30;99704.19;5058724;28;45489;-67
2022/11/18 04:33:57;;;;;;;;;1.00;1.00;;;;;10.69;72.49;99700.72;5060050;28;45489;-67
2022/11/18 04:36:23;;;;;;;;;0.00;0.00;;;;;10.74;72.31;99709.34;5059515;28;45763;-68
2022/11/18 04:38:49;;;;;;;;;0.00;0.00;;;;;10.70;72.70;99711.19;5054405;28;46288;-68
2022/11/18 04:41:14;;;;;;;;;0.00;0.00;;;;;10.71;72.23;99722.50;5038342;28;45722;-66
2022/11/18 04:43:40;;;;;;;;;0.75;0.00;;;;;10.71;72.48;99730.38;5059469;28;45768;-67
2022/11/18 04:46:06;;;;;;;;;0.00;0.00;;;;;10.72;72.28;99732.94;5059354;28;46382;-67
2022/11/18 04:48:32;;;;;;;;;1.25;1.00;;;;;10.72;72.37;99727.69;5051482;28;45471;-66
2022/11/18 04:51:01;;;;;;;;;0.00;0.00;;;;;10.72;72.47;99734.69;5037272;28;45563;-66
2022/11/18 04:53:26;;;;;;;;;1.00;0.00;;;;;10.68;72.23;99727.75;5055034;28;45358;-67
2022/11/18 04:55:52;;;;;;;;;0.00;0.00;;;;;10.72;72.25;99737.31;5043740;28;46227;-66
2022/11/18 04:58:17;;;;;;;;;1.25;0.00;;;;;10.66;72.43;99717.34;5059368;28;45769;-68
2022/11/18 05:00:43;;;;;;;;;0.00;0.00;;;;;10.69;71.92;99734.75;5051576;28;45659;-69
2022/11/18 05:03:08;;;;;;;;;1.25;0.00;;;;;10.73;72.01;99739.06;5055470;28;45403;-67
2022/11/18 05:05:34;;;;;;;;;2.00;0.25;;;;;10.55;71.86;99707.00;5057036;28;45465;-68
2022/11/18 05:07:59;;;;;;;;;0.25;0.25;;;;;10.75;72.44;99742.53;5054472;28;45746;-69
2022/11/18 05:10:25;;;;;;;;;2.25;1.00;;;;;10.73;72.38;99739.06;5051504;28;45839;-68
2022/11/18 05:12:51;;;;;;;;;1.00;0.75;;;;;10.67;72.16;99728.66;5059301;28;45509;-67
2022/11/18 05:15:22;;;;;;;;;0.00;0.00;;;;;10.69;72.31;99738.22;5058494;28;45425;-66
2022/11/18 05:17:48;;;;;;;;;2.00;0.75;;;;;10.72;71.73;99742.56;5055621;28;45353;-68
2022/11/18 05:20:14;;;;;;;;;1.00;1.00;;;;;10.73;71.78;99741.69;5054357;28;45347;-67
2022/11/18 05:22:54;;;;;;;;;2.25;0.75;;;;;10.71;71.80;99746.06;5050552;28;45524;-67
2022/11/18 05:25:20;;;;;;;;;4.25;1.00;;;;;10.73;71.85;99749.53;5045921;28;45775;-68
2022/11/18 05:27:45;;;;;;;;;3.00;1.00;;;;;10.72;72.13;99760.88;5046727;28;45571;-68
2022/11/18 05:30:11;;;;;;;;;1.00;1.00;;;;;10.64;71.26;99745.28;5054712;28;45887;-68
2022/11/18 05:32:37;;;;;;;;;0.00;0.00;;;;;10.71;71.53;99762.66;5058109;28;45497;-69
2022/11/18 05:35:03;;;;;;;;;2.75;1.00;;;;;10.67;71.19;99760.09;5053744;28;45508;-68
2022/11/18 05:37:31;;;;;;;;;0.50;0.00;;;;;10.57;71.69;99746.25;5055870;28;45485;-69
2022/11/18 05:39:57;;;;;;;;;1.25;1.25;;;;;10.66;71.58;99766.22;5054755;28;45635;-68
2022/11/18 05:45:06;;;;;;;;;1.00;0.00;;;;;10.59;71.60;99771.53;5052497;28;45824;-72
2022/11/18 05:47:58;;;;;;;;;1.75;1.00;;;;;10.58;71.85;99771.53;5054186;28;45369;-70
2022/11/18 05:50:17;;;;;;;;;2.25;1.00;;;;;10.57;71.27;99778.53;5054218;28;45484;-69
2022/11/18 05:52:43;;;;;;;;;1.00;1.00;;;;;10.48;71.39;99757.72;5043101;28;45505;-67
2022/11/18 05:55:11;;;;;;;;;1.00;1.00;;;;;10.55;71.81;99782.94;5052907;28;45840;-67
2022/11/18 05:57:36;;;;;;;;;1.25;1.00;;;;;10.39;71.43;99753.50;5055204;28;45695;-69
2022/11/18 06:00:03;;;;;;;;;2.75;1.25;;;;;10.35;71.55;99753.53;5058313;28;45729;-69
2022/11/18 06:02:29;;;;;;;;;1.50;1.00;;;;;10.55;71.63;99796.03;5049447;28;45699;-67
2022/11/18 06:05:02;;;;;;;;;4.00;1.00;;;;;10.52;71.25;99785.59;5053549;28;46241;-66
2022/11/18 06:07:34;;;;;;;;;2.00;1.00;;;;;10.34;71.55;99767.50;5053137;28;45406;-67
2022/11/18 06:10:01;;;;;;;;;2.50;1.00;;;;;10.51;71.46;99798.69;5053396;28;46117;-67
2022/11/18 06:12:30;;;;;;;;;1.00;1.00;;;;;10.48;71.40;99796.13;5053666;28;45799;-67
2022/11/18 06:15:39;;;;;;;;;1.00;1.00;;;;;10.39;71.92;99805.84;5049052;28;46280;-69
2022/11/18 06:18:10;;;;;;;;;3.00;1.00;;;;;10.37;71.63;99805.00;5035823;28;45489;-70
2022/11/18 06:20:38;;;;;;;;;2.50;1.00;;;;;10.45;71.39;99825.84;5036297;28;45370;-70
2022/11/18 06:23:07;;;;;;;;;1.00;1.00;;;;;10.39;71.71;99820.66;5053652;28;45715;-68
2022/11/18 06:25:37;;;;;;;;;0.50;0.00;;;;;10.38;71.44;99827.66;5031824;28;46550;-69
2022/11/18 06:28:03;;;;;;;;;1.00;1.00;;;;;10.47;71.23;99839.78;5053089;28;45657;-69
2022/11/18 06:30:28;;;;;;;;;2.00;1.00;;;;;10.47;71.47;99839.78;5035040;28;45596;-69
2022/11/18 06:32:54;;;;;;;;;4.25;2.00;;;;;10.48;71.37;99844.13;5053688;28;45444;-68
2022/11/18 06:35:20;;;;;;;;;4.00;1.00;;;;;10.42;71.47;99838.97;5050125;28;46613;-68
2022/11/18 06:37:46;;;;;;;;;0.00;0.00;;;;;10.43;71.41;99842.44;5053654;28;45532;-67
2022/11/18 06:40:11;;;;;;;;;3.25;1.00;;;;;10.34;71.27;99859.13;5053681;28;45487;-66
2022/11/18 06:45:21;;;;;;;;;5.00;2.00;;;;;10.10;71.99;99842.75;5057115;28;45362;-66
2022/11/18 06:47:47;;;;;;;;;9.00;2.00;;;;;10.17;72.45;99865.34;5055508;28;45496;-70
2022/11/18 06:50:13;;;;;;;;;2.75;2.00;;;;;10.04;72.17;99849.81;5052473;28;45761;-67
2022/11/18 06:52:38;;;;;;;;;3.00;1.25;;;;;10.17;72.24;99874.97;5055832;28;45470;-68
2022/11/18 06:55:07;;;;;;;;;6.00;2.00;;;;;9.99;72.02;99852.47;5054437;28;45736;-67
2022/11/18 06:57:33;;;;;;;;;3.00;1.00;;;;;10.04;72.19;99876.84;5050335;28;45587;-68
2022/11/18 06:59:58;;;;;;;;;3.00;3.00;;;;;10.07;72.61;99886.41;5034961;28;45362;-67
2022/11/18 07:02:24;;;;;;;;;3.25;2.00;;;;;10.01;72.24;99878.59;5052883;28;45569;-66
2022/11/18 07:04:50;;;;;;;;;3.25;1.75;;;;;10.01;72.36;99891.69;5053257;28;45370;-66
2022/11/18 07:07:15;;;;;;;;;2.50;1.00;;;;;9.88;72.28;99881.34;5051429;28;45624;-66
2022/11/18 07:09:41;;;;;;;;;2.25;1.25;;;;;9.85;72.56;99894.47;5055274;28;45505;-67
2022/11/18 07:12:06;;;;;;;;;4.00;2.25;;;;;9.91;73.10;99904.00;5056689;28;45610;-69
2022/11/18 07:14:32;;;;;;;;;3.50;3.00;;;;;9.93;72.88;99912.69;5055034;28;45756;-67
2022/11/18 07:16:57;;;;;;;;;3.00;2.00;;;;;9.80;72.48;99900.59;5052985;28;45511;-66
2022/11/18 07:19:23;;;;;;;;;3.50;2.25;;;;;9.83;72.95;99906.66;5047175;28;45454;-68
2022/11/18 07:21:49;;;;;;;;;5.75;3.00;;;;;9.97;72.20;99919.63;5052772;28;45577;-67
2022/11/18 07:24:15;;;;;;;;;3.25;3.00;;;;;9.99;72.91;99928.34;5052256;28;45954;-67
2022/11/18 07:26:41;;;;;;;;;4.00;2.75;;;;;9.89;72.63;99926.66;5052570;28;45760;-67
2022/11/18 07:29:08;;;;;;;;;3.00;2.00;;;;;9.91;72.67;99924.91;5046357;28;45511;-68
2022/11/18 07:31:36;;;;;;;;;3.00;2.00;;;;;10.00;72.59;99917.00;5052469;28;45898;-67
2022/11/18 07:34:02;;;;;;;;;4.00;2.50;;;;;10.07;72.29;99931.75;5033889;28;46983;-67
2022/11/18 07:36:28;;;;;;;;;3.25;2.50;;;;;9.99;72.27;99936.19;5052394;28;45755;-67
2022/11/18 07:38:57;;;;;;;;;8.00;3.00;;;;;10.01;72.26;99942.25;5052133;28;45667;-68
2022/11/18 07:41:28;;;;;;;;;2.75;2.25;;;;;10.05;72.35;99946.59;5048259;28;45348;-67
2022/11/18 07:43:55;;;;;;;;;2.75;2.00;;;;;10.23;72.08;99955.16;5039059;28;46284;-67
2022/11/18 07:46:27;;;;;;;;;4.00;3.50;;;;;10.33;71.40;99946.38;5051916;28;45420;-66
2022/11/18 07:48:56;;;;;;;;;5.75;4.50;;;;;10.45;71.05;99955.88;5044138;28;45745;-67
2022/11/18 07:51:24;;;;;;;;;5.50;3.00;;;;;10.17;70.52;99896.75;5037197;28;45530;-67
2022/11/18 07:53:50;;;;;;;;;7.00;3.50;;;;;10.60;70.52;99956.56;5056118;28;46171;-69
2022/11/18 07:56:16;;;;;;;;;4.00;2.75;;;;;10.66;70.22;99952.16;5055536;28;45341;-68
2022/11/18 07:58:43;;;;;;;;;2.00;2.00;;;;;10.73;70.16;99956.44;5046524;28;46126;-68
2022/11/18 08:01:17;;;;;;;;;2.25;2.25;;;;;10.78;69.92;99971.22;5054412;28;45666;-67
2022/11/18 08:03:44;;;;;;;;;4.50;2.00;;;;;11.21;68.85;99968.09;5052029;28;45701;-66
2022/11/18 08:06:11;;;;;;;;;6.25;2.00;;;;;12.97;65.64;99970.50;5049943;28;45900;-67
2022/11/18 08:08:37;;;;;;;;;2.50;2.50;;;;;15.04;60.14;99958.50;5052336;28;45742;-67
2022/11/18 08:11:06;;;;;;;;;2.33;1.33;;;;;16.75;55.01;99966.22;5051555;28;45675;-67
2022/11/18 08:13:32;;;;;;;;;1.33;1.33;;;;;18.11;51.45;99961.97;5051099;28;45486;-66
2022/11/18 08:15:58;;;;;;;;;3.00;2.67;;;;;18.98;49.26;99955.59;5050590;28;46762;-66
2022/11/18 08:18:24;;;;;;;;;3.33;2.00;;;;;19.12;47.79;99962.91;5052416;28;45682;-67
2022/11/18 08:20:50;;;;;;;;;1.00;1.00;;;;;18.95;48.82;99970.78;5048387;28;45422;-69
2022/11/18 08:23:16;;;;;;;;;4.00;3.00;;;;;19.22;48.18;99973.94;5049182;28;45784;-67
2022/11/18 08:25:43;;;;;;;;;4.00;2.67;;;;;19.70;46.56;99941.63;5050779;28;45717;-67
2022/11/18 08:28:10;;;;;;;;;3.33;2.00;;;;;20.26;45.41;99962.81;5053853;28;45827;-67
2022/11/18 08:30:36;;;;;;;;;5.67;3.33;;;;;19.54;45.97;99963.66;5045750;28;45340;-66
2022/11/18 08:33:02;;;;;;;;;2.00;2.00;;;;;19.01;46.28;99975.81;5055610;28;45451;-68
2022/11/18 08:35:31;;;;;;;;;2.33;2.00;;;;;18.95;46.57;99992.00;5051119;28;45384;-68
2022/11/18 08:38:01;;;;;;;;;4.33;2.00;;;;;19.82;45.29;99976.50;5052309;28;45660;-68
2022/11/18 08:40:27;;;;;;;;;2.00;1.33;;;;;21.64;41.93;99974.19;5056633;28;45738;-67
2022/11/18 08:42:53;;;;;;;;;1.00;1.00;;;;;21.48;41.53;99963.50;5049700;28;45724;-69
2022/11/18 08:45:18;;;;;;;;;1.00;1.00;;;;;22.39;39.87;99969.00;5036598;28;46774;-68
2022/11/18 08:47:47;;;;;;;;;2.00;0.33;;;;;21.56;40.94;99979.91;5051815;28;45507;-67
2022/11/18 08:50:12;;;;;;;;;1.67;1.00;;;;;22.60;40.09;99966.88;5033985;28;45678;-68
2022/11/18 08:52:38;;;;;;;;;2.00;2.00;;;;;23.91;37.09;99972.94;5051340;28;45747;-69
2022/11/18 08:55:04;;;;;;;;;0.67;0.67;;;;;22.70;38.25;99976.03;5040893;28;45393;-67
2022/11/18 08:57:30;;;;;;;;;1.00;1.00;;;;;21.53;39.85;99964.09;5048997;28;45487;-67
2022/11/18 08:59:57;;;;;;;;;1.00;1.00;;;;;20.65;41.54;99981.22;5055465;28;45507;-67
2022/11/18 09:02:25;;;;;;;;;2.00;1.33;;;;;21.12;41.28;99975.19;5055429;28;45509;-67
2022/11/18 09:04:51;;;;;;;;;3.33;2.00;;;;;22.32;39.25;99989.00;5040168;28;45402;-67
2022/11/18 09:07:38;;;;;;;;;1.67;1.00;;;;;23.92;37.54;99978.22;5051160;28;45367;-67
2022/11/18 09:10:04;;;;;;;;;1.00;1.00;;;;;23.77;36.96;99956.94;5025134;28;45352;-68
2022/11/18 09:12:29;;;;;;;;;2.67;1.00;;;;;25.38;34.60;99945.94;5034609;28;46803;-67
2022/11/18 09:14:55;;;;;;;;;1.00;1.00;;;;;26.81;32.36;99964.78;5051114;28;45465;-67
2022/11/18 09:17:20;;;;;;;;;0.00;0.00;;;;;27.44;31.78;99987.59;5053072;28;45560;-68
2022/11/18 09:19:46;;;;;;;;;1.25;1.25;;;;;27.43;31.80;99993.06;5056446;28;45467;-68
2022/11/18 09:22:11;;;;;;;;;3.75;1.00;;;;;28.72;29.66;99983.28;5049530;28;45415;-68
2022/11/18 09:24:38;;;;;;;;;1.00;1.00;;;;;29.52;29.04;99987.13;5056570;28;45466;-67
2022/11/18 09:27:05;;;;;;;;;1.25;1.00;;;;;30.14;27.31;99987.00;5055253;28;45558;-69
2022/11/18 09:29:35;;;;;;;;;0.00;0.00;;;;;30.35;26.90;99989.56;5054786;28;45603;-68
2022/11/18 09:32:01;;;;;;;;;2.00;1.00;;;;;29.61;27.90;99996.22;5038882;28;47914;-68
2022/11/18 09:34:34;;;;;;;;;2.00;0.50;;;;;31.30;26.97;100002.22;5054554;28;45472;-66
2022/11/18 09:37:05;;;;;;;;;1.00;1.00;;;;;30.15;26.59;99994.94;5053303;28;45513;-67
2022/11/18 09:39:34;;;;;;;;;0.25;0.25;;;;;30.10;27.28;99978.31;5049785;28;45544;-68
2022/11/18 09:42:35;;;;;;;;;0.40;0.20;;;;;30.32;26.95;99996.09;5047054;28;46324;-67
2022/11/18 09:45:22;;;;;;;;;1.20;1.20;;;;;30.15;26.49;99992.22;5041841;28;45450;-68
2022/11/18 09:47:48;;;;;;;;;2.00;1.00;;;;;27.88;28.96;99993.91;5053278;28;45485;-67
2022/11/18 09:50:19;;;;;;;;;1.75;1.00;;;;;29.13;28.31;100004.97;5049481;28;45439;-67
2022/11/18 09:53:21;;;;;;;;;4.50;1.00;;;;;28.62;28.88;99982.38;5034109;28;46969;-67
2022/11/18 09:55:48;;;;;;;;;1.00;1.00;;;;;29.46;27.42;99995.75;5054571;28;46319;-68
2022/11/18 09:58:36;;;;;;;;;1.75;1.75;;;;;30.09;26.70;99998.22;5051431;28;45688;-69
2022/11/18 10:01:08;;;;;;;;;2.50;1.25;;;;;31.21;25.48;100009.38;5048990;28;45888;-67
2022/11/18 10:03:34;;;;;;;;;0.40;0.40;;;;;32.52;24.14;100010.91;5051677;28;46058;-68
2022/11/18 10:06:10;;;;;;;;;1.75;1.00;;;;;30.23;26.33;100014.00;5051356;28;45906;-67
2022/11/18 10:08:46;;;;;;;;;1.80;1.00;;;;;31.37;25.35;99997.91;5046539;28;46007;-68
2022/11/18 10:11:18;;;;;;;;;1.80;0.80;;;;;30.96;25.82;100015.41;5054871;28;45506;-68
2022/11/18 10:13:54;;;;;;;;;1.75;1.00;;;;;32.84;23.90;100016.75;5050485;28;46651;-67
2022/11/18 10:16:28;;;;;;;;;2.00;1.00;;;;;34.09;21.99;100018.09;5045846;28;45990;-66
2022/11/18 10:19:18;;;;;;;;;0.20;0.20;;;;;33.90;22.63;100011.91;5051384;28;45550;-68
2022/11/18 10:22:01;;;;;;;;;0.20;0.00;;;;;34.03;22.76;100007.84;5044277;28;45235;-68
2022/11/18 10:24:34;;;;;;;;;0.00;0.00;;;;;34.97;21.82;100020.19;5049649;28;45825;-69
2022/11/18 10:27:16;;;;;;;;;1.00;1.00;;;;;35.83;20.78;100002.22;5051172;28;45786;-69
2022/11/18 10:29:43;;;;;;;;;1.60;1.60;;;;;36.42;19.83;100015.31;5050465;28;45706;-69
2022/11/18 10:32:14;;;;;;;;;0.00;0.00;;;;;37.12;19.71;100017.78;5049618;28;45621;-67
2022/11/18 10:34:50;;;;;;;;;0.80;0.80;;;;;37.62;19.34;100025.44;5050905;28;46196;-67
2022/11/18 10:37:31;;;;;;;;;1.00;1.00;;;;;36.70;19.75;100013.75;5054542;28;45529;-65
2022/11/18 10:39:59;;;;;;;;;1.00;1.00;;;;;35.77;20.56;100019.28;5055818;28;45729;-69
2022/11/18 10:42:31;;;;;;;;;1.00;1.00;;;;;34.82;20.76;100018.16;5050707;28;45289;-68
2022/11/18 10:45:13;;;;;;;;;0.20;0.20;;;;;34.77;20.94;100017.81;5045378;28;45802;-68
2022/11/18 10:47:39;;;;;;;;;1.00;1.00;;;;;31.98;23.57;100025.44;5048616;28;45738;-68
2022/11/18 10:50:34;;;;;;;;;1.75;0.25;;;;;29.89;25.71;100037.81;5051529;28;45580;-67
2022/11/18 10:53:00;;;;;;;;;3.40;2.00;;;;;28.71;27.90;100032.78;5026747;28;45546;-67
2022/11/18 10:55:27;;;;;;;;;1.00;1.00;;;;;26.64;30.00;100017.13;5050612;28;45896;-67
2022/11/18 10:57:57;;;;;;;;;3.20;1.00;;;;;25.32;31.51;100035.69;5055229;28;45427;-68
2022/11/18 11:00:44;;;;;;;;;0.80;0.80;;;;;23.86;33.95;100023.22;5049437;28;46013;-69
2022/11/18 11:03:26;;;;;;;;;4.00;1.00;;;;;22.87;35.46;100028.41;5051979;28;45581;-69
2022/11/18 11:06:31;;;;;;;;;0.00;0.00;;;;;22.17;36.42;100034.25;5053298;28;45876;-68
2022/11/18 11:09:03;;;;;;;;;1.25;1.25;;;;;21.27;38.11;100031.25;5053774;28;45563;-67
2022/11/18 11:11:39;;;;;;;;;1.50;0.00;;;;;20.85;38.87;100036.06;5051189;28;45485;-67
2022/11/18 11:14:04;;;;;;;;;1.00;1.00;;;;;20.41;39.63;100052.47;5032613;28;45405;-67
2022/11/18 11:16:38;;;;;;;;;0.50;0.50;;;;;20.05;40.55;100045.34;5050372;28;46612;-70
2022/11/18 11:19:08;;;;;;;;;2.67;0.67;;;;;21.96;37.39;100017.66;5050444;28;45613;-68
2022/11/18 11:21:34;;;;;;;;;0.67;0.00;;;;;21.47;37.92;100046.16;5032693;28;45712;-68
2022/11/18 11:23:59;;;;;;;;;1.00;1.00;;;;;20.15;40.46;100037.78;5047418;28;45498;-68
2022/11/18 11:27:00;;;;;;;;;1.00;1.00;;;;;20.00;40.84;100043.84;5044887;28;46428;-68
2022/11/18 11:29:40;;;;;;;;;1.00;1.00;;;;;19.55;41.58;100055.66;5040275;28;45376;-68
2022/11/18 11:32:32;;;;;;;;;1.00;1.00;;;;;19.91;41.05;100051.31;5049713;28;45263;-68
2022/11/18 11:35:13;;;;;;;;;0.00;0.00;;;;;19.19;42.50;100053.75;5047011;28;45378;-68
2022/11/18 11:37:58;;;;;;;;;1.00;1.00;;;;;18.53;43.67;100033.56;5046009;28;46024;-68
2022/11/18 11:40:38;;;;;;;;;3.00;1.00;;;;;18.35;44.12;100045.78;5051617;28;45485;-67
2022/11/18 11:43:20;;;;;;;;;1.00;0.33;;;;;18.10;44.82;100051.19;5052147;28;45444;-67
2022/11/18 11:46:07;;;;;;;;;1.00;1.00;;;;;17.68;45.63;100037.84;5046662;28;45518;-67
2022/11/18 11:48:44;;;;;;;;;1.67;1.00;;;;;17.42;46.33;100022.94;5048326;28;46306;-68
2022/11/18 11:51:30;;;;;;;;;1.00;1.00;;;;;17.21;47.02;100056.34;5045214;28;45895;-67
2022/11/18 11:54:04;;;;;;;;;0.33;0.33;;;;;17.02;47.72;100064.09;5035425;28;45746;-68
2022/11/18 11:56:48;;;;;;;;;3.00;2.00;;;;;16.77;47.78;100054.31;5048356;28;45401;-68
2022/11/18 11:59:39;;;;;;;;;4.00;1.00;;;;;16.57;48.57;100051.50;5030967;28;46648;-67